createdAt,value
2016-09-20T00:00:31.822Z,1013.45
2016-09-20T00:01:12.371Z,1013.45
2016-09-20T00:01:52.912Z,1013.46
2016-09-20T00:02:33.454Z,1013.44
2016-09-20T00:03:13.995Z,1013.45
2016-09-20T00:03:54.529Z,1013.45
2016-09-20T00:04:35.071Z,1013.41
2016-09-20T00:05:15.606Z,1013.44
2016-09-20T00:05:56.153Z,1013.42
2016-09-20T00:06:36.698Z,1013.45
2016-09-20T00:07:17.243Z,1013.44
2016-09-20T00:07:57.787Z,1013.43
2016-09-20T00:08:38.327Z,1013.45
2016-09-20T00:09:18.871Z,1013.43
2016-09-20T00:09:59.415Z,1013.4
2016-09-20T00:10:39.960Z,1013.38
2016-09-20T00:11:20.504Z,1013.41
2016-09-20T00:12:01.046Z,1013.41
2016-09-20T00:12:41.584Z,1013.41
2016-09-20T00:13:22.126Z,1013.38
2016-09-20T00:14:02.667Z,1013.4
2016-09-20T00:14:43.212Z,1013.36
2016-09-20T00:15:23.756Z,1013.37
2016-09-20T00:16:04.299Z,1013.38
2016-09-20T00:16:44.843Z,1013.35
2016-09-20T00:17:25.386Z,1013.35
2016-09-20T00:18:05.934Z,1013.4
2016-09-20T00:18:46.477Z,1013.36
2016-09-20T00:19:27.013Z,1013.38
2016-09-20T00:20:07.556Z,1013.41
2016-09-20T00:20:48.099Z,1013.42
2016-09-20T00:21:28.640Z,1013.33
2016-09-20T00:22:09.181Z,1013.38
2016-09-20T00:22:49.717Z,1013.41
2016-09-20T00:23:30.261Z,1013.39
2016-09-20T00:24:10.805Z,1013.39
2016-09-20T00:24:51.350Z,1013.4
2016-09-20T00:25:31.893Z,1013.39
2016-09-20T00:26:12.434Z,1013.41
2016-09-20T00:26:52.982Z,1013.39
2016-09-20T00:27:33.524Z,1013.36
2016-09-20T00:28:14.061Z,1013.39
2016-09-20T00:28:54.602Z,1013.4
2016-09-20T00:29:35.147Z,1013.37
2016-09-20T00:30:15.692Z,1013.41
2016-09-20T00:30:56.241Z,1013.38
2016-09-20T00:31:36.770Z,1013.38
2016-09-20T00:32:17.315Z,1013.36
2016-09-20T00:32:57.860Z,1013.36
2016-09-20T00:33:38.401Z,1013.35
2016-09-20T00:34:18.944Z,1013.36
2016-09-20T00:34:59.489Z,1013.33
2016-09-20T00:35:40.033Z,1013.38
2016-09-20T00:36:20.583Z,1013.36
2016-09-20T00:37:01.107Z,1013.37
2016-09-20T00:37:41.649Z,1013.33
2016-09-20T00:38:22.186Z,1013.34
2016-09-20T00:39:02.726Z,1013.3
2016-09-20T00:39:43.274Z,1013.27
2016-09-20T00:40:23.820Z,1013.29
2016-09-20T00:41:04.363Z,1013.27
2016-09-20T00:41:44.909Z,1013.29
2016-09-20T00:42:25.457Z,1013.27
2016-09-20T00:43:06.000Z,1013.27
2016-09-20T00:43:46.540Z,1013.25
2016-09-20T00:44:27.089Z,1013.25
2016-09-20T00:45:07.634Z,1013.27
2016-09-20T00:45:48.166Z,1013.28
2016-09-20T00:46:28.697Z,1013.23
2016-09-20T00:47:09.248Z,1013.24
2016-09-20T00:47:49.789Z,1013.25
2016-09-20T00:48:30.332Z,1013.22
2016-09-20T00:49:10.880Z,1013.24
2016-09-20T00:49:51.416Z,1013.24
2016-09-20T00:50:31.953Z,1013.24
2016-09-20T00:51:12.497Z,1013.23
2016-09-20T00:51:53.034Z,1013.23
2016-09-20T00:52:33.567Z,1013.24
2016-09-20T00:53:14.101Z,1013.22
2016-09-20T00:53:54.659Z,1013.22
2016-09-20T00:54:35.187Z,1013.19
2016-09-20T00:55:15.734Z,1013.19
2016-09-20T00:55:56.283Z,1013.22
2016-09-20T00:56:36.840Z,1013.18
2016-09-20T00:57:17.381Z,1013.17
2016-09-20T00:57:57.939Z,1013.15
2016-09-20T00:58:38.486Z,1013.14
2016-09-20T00:59:19.028Z,1013.14
2016-09-20T00:59:59.577Z,1013.15
2016-09-20T01:00:40.121Z,1013.12
2016-09-20T01:01:20.666Z,1013.14
2016-09-20T01:02:01.211Z,1013.13
2016-09-20T01:02:41.754Z,1013.11
2016-09-20T01:03:22.302Z,1013.15
2016-09-20T01:04:02.845Z,1013.05
2016-09-20T01:04:43.378Z,1013.13
2016-09-20T01:05:23.920Z,1013.15
2016-09-20T01:06:04.462Z,1013.11
2016-09-20T01:06:44.997Z,1013.12
2016-09-20T01:07:25.548Z,1013.14
2016-09-20T01:08:06.096Z,1013.12
2016-09-20T01:08:46.639Z,1013.08
2016-09-20T01:09:27.187Z,1013.11
2016-09-20T01:10:07.729Z,1013.15
2016-09-20T01:10:48.273Z,1013.1
2016-09-20T01:11:28.818Z,1013.17
2016-09-20T01:12:09.356Z,1013.09
2016-09-20T01:12:49.893Z,1013.16
2016-09-20T01:13:30.438Z,1013.1
2016-09-20T01:14:10.973Z,1013.1
2016-09-20T01:14:51.520Z,1013.09
2016-09-20T01:15:32.063Z,1013.1
2016-09-20T01:16:12.608Z,1013.13
2016-09-20T01:16:53.156Z,1013.06
2016-09-20T01:17:33.706Z,1013.06
2016-09-20T01:18:14.255Z,1013.07
2016-09-20T01:18:54.800Z,1013.04
2016-09-20T01:19:35.336Z,1013.03
2016-09-20T01:20:15.884Z,1013.05
2016-09-20T01:20:56.428Z,1013.05
2016-09-20T01:21:36.962Z,1013.06
2016-09-20T01:22:17.499Z,1013.04
2016-09-20T01:22:58.042Z,1013
2016-09-20T01:23:38.588Z,1013.02
2016-09-20T01:24:19.131Z,1013.01
2016-09-20T01:24:59.669Z,1013.03
2016-09-20T01:25:40.216Z,1013.02
2016-09-20T01:26:20.764Z,1013.01
2016-09-20T01:27:01.309Z,1012.99
2016-09-20T01:27:41.855Z,1012.96
2016-09-20T01:28:22.402Z,1012.98
2016-09-20T01:29:02.948Z,1012.96
2016-09-20T01:29:43.493Z,1012.95
2016-09-20T01:30:24.038Z,1012.92
2016-09-20T01:31:04.576Z,1012.94
2016-09-20T01:31:45.115Z,1012.93
2016-09-20T01:32:25.657Z,1012.94
2016-09-20T01:33:06.204Z,1012.95
2016-09-20T01:33:46.744Z,1012.91
2016-09-20T01:34:27.297Z,1012.94
2016-09-20T01:35:07.843Z,1012.94
2016-09-20T01:35:48.394Z,1012.95
2016-09-20T01:36:28.936Z,1012.91
2016-09-20T01:37:09.474Z,1012.92
2016-09-20T01:37:50.015Z,1012.94
2016-09-20T01:38:30.558Z,1012.91
2016-09-20T01:39:11.102Z,1012.94
2016-09-20T01:39:51.619Z,1012.95
2016-09-20T01:40:32.160Z,1012.89
2016-09-20T01:41:12.701Z,1012.89
2016-09-20T01:41:53.242Z,1012.93
2016-09-20T01:42:33.785Z,1012.92
2016-09-20T01:43:14.332Z,1012.87
2016-09-20T01:43:54.880Z,1012.89
2016-09-20T01:44:35.427Z,1012.89
2016-09-20T01:45:15.974Z,1012.91
2016-09-20T01:45:56.526Z,1012.87
2016-09-20T01:46:37.073Z,1012.89
2016-09-20T01:47:17.618Z,1012.86
2016-09-20T01:47:58.162Z,1012.87
2016-09-20T01:48:38.706Z,1012.88
2016-09-20T01:49:19.248Z,1012.83
2016-09-20T01:49:59.791Z,1012.88
2016-09-20T01:50:40.328Z,1012.86
2016-09-20T01:51:20.869Z,1012.86
2016-09-20T01:52:01.410Z,1012.87
2016-09-20T01:52:41.954Z,1012.87
2016-09-20T01:53:22.496Z,1012.82
2016-09-20T01:54:03.045Z,1012.86
2016-09-20T01:54:43.593Z,1012.86
2016-09-20T01:55:24.135Z,1012.83
2016-09-20T01:56:04.676Z,1012.87
2016-09-20T01:56:45.226Z,1012.88
2016-09-20T01:57:25.766Z,1012.87
2016-09-20T01:58:06.314Z,1012.89
2016-09-20T01:58:46.856Z,1012.87
2016-09-20T01:59:27.400Z,1012.92
2016-09-20T02:00:07.939Z,1012.9
2016-09-20T02:00:48.485Z,1012.88
2016-09-20T02:01:29.021Z,1012.89
2016-09-20T02:02:09.572Z,1012.92
2016-09-20T02:02:50.115Z,1012.91
2016-09-20T02:03:30.655Z,1012.91
2016-09-20T02:04:11.199Z,1012.92
2016-09-20T02:04:51.764Z,1012.92
2016-09-20T02:05:32.307Z,1012.92
2016-09-20T02:06:12.856Z,1012.86
2016-09-20T02:06:53.405Z,1012.88
2016-09-20T02:07:33.939Z,1012.91
2016-09-20T02:08:14.486Z,1012.89
2016-09-20T02:08:55.001Z,1012.88
2016-09-20T02:09:35.547Z,1012.87
2016-09-20T02:10:16.104Z,1012.89
2016-09-20T02:10:56.650Z,1012.89
2016-09-20T02:11:37.181Z,1012.87
2016-09-20T02:12:17.731Z,1012.93
2016-09-20T02:12:58.272Z,1012.87
2016-09-20T02:13:38.816Z,1012.87
2016-09-20T02:14:19.366Z,1012.9
2016-09-20T02:14:59.914Z,1012.91
2016-09-20T02:15:40.462Z,1012.89
2016-09-20T02:16:21.007Z,1012.91
2016-09-20T02:17:01.558Z,1012.88
2016-09-20T02:17:42.108Z,1012.89
2016-09-20T02:18:22.656Z,1012.88
2016-09-20T02:19:03.202Z,1012.89
2016-09-20T02:19:43.746Z,1012.9
2016-09-20T02:20:24.296Z,1012.87
2016-09-20T02:21:04.841Z,1012.88
2016-09-20T02:21:45.387Z,1012.83
2016-09-20T02:22:25.929Z,1012.87
2016-09-20T02:23:06.470Z,1012.86
2016-09-20T02:23:47.015Z,1012.89
2016-09-20T02:24:27.557Z,1012.86
2016-09-20T02:25:08.106Z,1012.88
2016-09-20T02:25:48.646Z,1012.9
2016-09-20T02:26:29.189Z,1012.87
2016-09-20T02:27:09.733Z,1012.89
2016-09-20T02:27:50.280Z,1012.9
2016-09-20T02:28:30.827Z,1012.89
2016-09-20T02:29:11.367Z,1012.87
2016-09-20T02:29:51.909Z,1012.88
2016-09-20T02:30:32.459Z,1012.89
2016-09-20T02:31:12.992Z,1012.91
2016-09-20T02:31:53.531Z,1012.88
2016-09-20T02:32:34.072Z,1012.87
2016-09-20T02:33:14.613Z,1012.89
2016-09-20T02:33:55.160Z,1012.91
2016-09-20T02:34:35.696Z,1012.88
2016-09-20T02:35:16.233Z,1012.88
2016-09-20T02:35:56.779Z,1012.88
2016-09-20T02:36:37.322Z,1012.88
2016-09-20T02:37:17.885Z,1012.88
2016-09-20T02:37:58.416Z,1012.91
2016-09-20T02:38:38.959Z,1012.87
2016-09-20T02:39:19.505Z,1012.89
2016-09-20T02:40:00.035Z,1012.89
2016-09-20T02:40:40.585Z,1012.89
2016-09-20T02:41:21.130Z,1012.88
2016-09-20T02:42:01.676Z,1012.86
2016-09-20T02:42:42.220Z,1012.88
2016-09-20T02:43:22.762Z,1012.88
2016-09-20T02:44:03.301Z,1012.83
2016-09-20T02:44:43.848Z,1012.86
2016-09-20T02:45:24.401Z,1012.85
2016-09-20T02:46:04.950Z,1012.87
2016-09-20T02:46:45.494Z,1012.84
2016-09-20T02:47:26.036Z,1012.86
2016-09-20T02:48:06.581Z,1012.86
2016-09-20T02:48:47.124Z,1012.84
2016-09-20T02:49:27.667Z,1012.87
2016-09-20T02:50:08.217Z,1012.86
2016-09-20T02:50:48.762Z,1012.86
2016-09-20T02:51:29.295Z,1012.85
2016-09-20T02:52:09.840Z,1012.84
2016-09-20T02:52:50.376Z,1012.83
2016-09-20T02:53:30.925Z,1012.84
2016-09-20T02:54:11.481Z,1012.83
2016-09-20T02:54:52.016Z,1012.85
2016-09-20T02:55:32.558Z,1012.83
2016-09-20T02:56:13.106Z,1012.83
2016-09-20T02:56:53.660Z,1012.83
2016-09-20T02:57:34.206Z,1012.83
2016-09-20T02:58:14.751Z,1012.79
2016-09-20T02:58:55.302Z,1012.75
2016-09-20T02:59:35.849Z,1012.81
2016-09-20T03:00:16.390Z,1012.78
2016-09-20T03:00:56.937Z,1012.79
2016-09-20T03:01:37.480Z,1012.76
2016-09-20T03:02:18.010Z,1012.82
2016-09-20T03:02:58.564Z,1012.74
2016-09-20T03:03:39.105Z,1012.76
2016-09-20T03:04:19.664Z,1012.79
2016-09-20T03:05:00.193Z,1012.81
2016-09-20T03:05:40.730Z,1012.77
2016-09-20T03:06:21.271Z,1012.77
2016-09-20T03:07:01.818Z,1012.79
2016-09-20T03:07:42.352Z,1012.78
2016-09-20T03:08:22.898Z,1012.77
2016-09-20T03:09:03.446Z,1012.78
2016-09-20T03:09:43.998Z,1012.79
2016-09-20T03:10:24.548Z,1012.82
2016-09-20T03:11:05.098Z,1012.85
2016-09-20T03:11:45.637Z,1012.83
2016-09-20T03:12:26.179Z,1012.82
2016-09-20T03:13:06.717Z,1012.85
2016-09-20T03:13:47.259Z,1012.84
2016-09-20T03:14:27.793Z,1012.87
2016-09-20T03:15:08.344Z,1012.86
2016-09-20T03:15:48.879Z,1012.81
2016-09-20T03:16:29.403Z,1012.85
2016-09-20T03:17:09.945Z,1012.84
2016-09-20T03:17:50.481Z,1012.85
2016-09-20T03:18:31.017Z,1012.85
2016-09-20T03:19:11.568Z,1012.84
2016-09-20T03:19:52.191Z,1012.83
2016-09-20T03:20:32.735Z,1012.83
2016-09-20T03:21:13.286Z,1012.85
2016-09-20T03:21:53.833Z,1012.85
2016-09-20T03:22:34.377Z,1012.79
2016-09-20T03:23:14.924Z,1012.82
2016-09-20T03:23:55.472Z,1012.83
2016-09-20T03:24:35.995Z,1012.81
2016-09-20T03:25:16.545Z,1012.81
2016-09-20T03:25:57.082Z,1012.8
2016-09-20T03:26:37.632Z,1012.8
2016-09-20T03:27:18.171Z,1012.8
2016-09-20T03:27:58.708Z,1012.79
2016-09-20T03:28:39.254Z,1012.77
2016-09-20T03:29:19.797Z,1012.75
2016-09-20T03:30:00.348Z,1012.76
2016-09-20T03:30:40.895Z,1012.76
2016-09-20T03:31:21.448Z,1012.76
2016-09-20T03:32:01.996Z,1012.79
2016-09-20T03:32:42.539Z,1012.76
2016-09-20T03:33:23.083Z,1012.77
2016-09-20T03:34:03.630Z,1012.77
2016-09-20T03:34:44.178Z,1012.78
2016-09-20T03:35:24.722Z,1012.79
2016-09-20T03:36:05.273Z,1012.77
2016-09-20T03:36:45.815Z,1012.77
2016-09-20T03:37:26.340Z,1012.77
2016-09-20T03:38:06.875Z,1012.76
2016-09-20T03:38:47.426Z,1012.74
2016-09-20T03:39:27.961Z,1012.75
2016-09-20T03:40:08.506Z,1012.77
2016-09-20T03:40:49.054Z,1012.74
2016-09-20T03:41:29.594Z,1012.74
2016-09-20T03:42:10.129Z,1012.73
2016-09-20T03:42:50.670Z,1012.76
2016-09-20T03:43:31.224Z,1012.71
2016-09-20T03:44:11.884Z,1012.75
2016-09-20T03:44:52.436Z,1012.76
2016-09-20T03:45:32.976Z,1012.76
2016-09-20T03:46:13.516Z,1012.75
2016-09-20T03:46:54.055Z,1012.74
2016-09-20T03:47:34.842Z,1012.73
2016-09-20T03:48:15.378Z,1012.75
2016-09-20T03:48:55.989Z,1012.74
2016-09-20T03:49:36.528Z,1012.7
2016-09-20T03:50:17.073Z,1012.73
2016-09-20T03:50:57.623Z,1012.74
2016-09-20T03:51:38.173Z,1012.72
2016-09-20T03:52:18.720Z,1012.73
2016-09-20T03:52:59.268Z,1012.75
2016-09-20T03:53:39.822Z,1012.75
2016-09-20T03:54:20.603Z,1012.71
2016-09-20T03:55:01.150Z,1012.73
2016-09-20T03:55:41.692Z,1012.72
2016-09-20T03:56:22.235Z,1012.74
2016-09-20T03:57:02.784Z,1012.71
2016-09-20T03:57:43.390Z,1012.72
2016-09-20T03:58:24.041Z,1012.72
2016-09-20T03:59:04.698Z,1012.73
2016-09-20T03:59:45.232Z,1012.7
2016-09-20T04:00:25.778Z,1012.76
2016-09-20T04:01:06.316Z,1012.74
2016-09-20T04:01:46.865Z,1012.71
2016-09-20T04:02:27.415Z,1012.73
2016-09-20T04:03:07.964Z,1012.75
2016-09-20T04:03:48.508Z,1012.7
2016-09-20T04:04:29.050Z,1012.73
2016-09-20T04:05:09.602Z,1012.74
2016-09-20T04:05:50.140Z,1012.74
2016-09-20T04:06:30.684Z,1012.77
2016-09-20T04:07:11.230Z,1012.78
2016-09-20T04:07:51.779Z,1012.8
2016-09-20T04:08:32.429Z,1012.77
2016-09-20T04:09:12.972Z,1012.78
2016-09-20T04:09:53.531Z,1012.79
2016-09-20T04:10:34.097Z,1012.77
2016-09-20T04:11:14.646Z,1012.8
2016-09-20T04:11:55.277Z,1012.83
2016-09-20T04:12:35.810Z,1012.8
2016-09-20T04:13:16.355Z,1012.82
2016-09-20T04:13:56.896Z,1012.79
2016-09-20T04:14:37.430Z,1012.81
2016-09-20T04:15:17.972Z,1012.78
2016-09-20T04:15:58.517Z,1012.78
2016-09-20T04:16:39.083Z,1012.76
2016-09-20T04:17:19.620Z,1012.81
2016-09-20T04:18:00.166Z,1012.78
2016-09-20T04:18:40.718Z,1012.82
2016-09-20T04:19:21.272Z,1012.79
2016-09-20T04:20:01.811Z,1012.79
2016-09-20T04:20:42.359Z,1012.82
2016-09-20T04:21:22.910Z,1012.78
2016-09-20T04:22:03.451Z,1012.8
2016-09-20T04:22:43.996Z,1012.82
2016-09-20T04:23:24.548Z,1012.78
2016-09-20T04:24:05.065Z,1012.82
2016-09-20T04:24:45.611Z,1012.81
2016-09-20T04:25:26.186Z,1012.84
2016-09-20T04:26:06.732Z,1012.84
2016-09-20T04:26:47.268Z,1012.78
2016-09-20T04:27:27.816Z,1012.82
2016-09-20T04:28:08.367Z,1012.81
2016-09-20T04:28:48.902Z,1012.83
2016-09-20T04:29:29.449Z,1012.82
2016-09-20T04:30:09.999Z,1012.8
2016-09-20T04:30:50.550Z,1012.82
2016-09-20T04:31:31.084Z,1012.83
2016-09-20T04:32:11.632Z,1012.8
2016-09-20T04:32:52.175Z,1012.84
2016-09-20T04:33:32.723Z,1012.8
2016-09-20T04:34:13.264Z,1012.79
2016-09-20T04:34:53.811Z,1012.81
2016-09-20T04:35:34.355Z,1012.79
2016-09-20T04:36:14.903Z,1012.79
2016-09-20T04:36:55.442Z,1012.81
2016-09-20T04:37:35.974Z,1012.8
2016-09-20T04:38:16.519Z,1012.8
2016-09-20T04:38:57.061Z,1012.8
2016-09-20T04:39:37.592Z,1012.79
2016-09-20T04:40:18.142Z,1012.82
2016-09-20T04:40:58.688Z,1012.78
2016-09-20T04:41:39.235Z,1012.82
2016-09-20T04:42:19.778Z,1012.82
2016-09-20T04:43:00.322Z,1012.8
2016-09-20T04:43:40.869Z,1012.81
2016-09-20T04:44:21.407Z,1012.8
2016-09-20T04:45:01.954Z,1012.83
2016-09-20T04:45:42.494Z,1012.83
2016-09-20T04:46:23.033Z,1012.82
2016-09-20T04:47:03.568Z,1012.85
2016-09-20T04:47:44.110Z,1012.81
2016-09-20T04:48:24.651Z,1012.82
2016-09-20T04:49:45.738Z,1012.82
2016-09-20T04:50:26.281Z,1012.83
2016-09-20T04:51:06.830Z,1012.83
2016-09-20T04:51:47.368Z,1012.85
2016-09-20T04:52:27.906Z,1012.84
2016-09-20T04:53:08.447Z,1012.85
2016-09-20T04:53:48.993Z,1012.82
2016-09-20T04:54:29.536Z,1012.85
2016-09-20T04:55:10.075Z,1012.87
2016-09-20T04:55:50.615Z,1012.85
2016-09-20T04:56:31.145Z,1012.85
2016-09-20T04:57:11.694Z,1012.83
2016-09-20T04:57:52.237Z,1012.88
2016-09-20T04:58:32.778Z,1012.88
2016-09-20T04:59:13.324Z,1012.89
2016-09-20T04:59:53.865Z,1012.88
2016-09-20T05:00:34.400Z,1012.9
2016-09-20T05:01:14.948Z,1012.89
2016-09-20T05:01:55.481Z,1012.9
2016-09-20T05:02:36.030Z,1012.88
2016-09-20T05:03:16.571Z,1012.89
2016-09-20T05:03:57.115Z,1012.89
2016-09-20T05:04:37.683Z,1012.88
2016-09-20T05:05:18.207Z,1012.91
2016-09-20T05:05:58.748Z,1012.91
2016-09-20T05:06:39.293Z,1012.92
2016-09-20T05:07:19.841Z,1012.94
2016-09-20T05:08:00.387Z,1012.91
2016-09-20T05:08:40.937Z,1012.91
2016-09-20T05:09:21.480Z,1012.92
2016-09-20T05:10:02.022Z,1012.94
2016-09-20T05:10:42.564Z,1012.94
2016-09-20T05:11:23.104Z,1012.95
2016-09-20T05:12:03.641Z,1012.97
2016-09-20T05:12:44.191Z,1012.96
2016-09-20T05:13:24.760Z,1012.99
2016-09-20T05:14:05.292Z,1012.99
2016-09-20T05:14:45.830Z,1013
2016-09-20T05:15:26.375Z,1013
2016-09-20T05:16:06.933Z,1013
2016-09-20T05:16:47.478Z,1013.02
2016-09-20T05:17:28.068Z,1012.99
2016-09-20T05:18:08.614Z,1013
2016-09-20T05:18:49.171Z,1012.97
2016-09-20T05:19:29.712Z,1012.99
2016-09-20T05:20:10.245Z,1012.97
2016-09-20T05:20:50.789Z,1012.95
2016-09-20T05:21:31.333Z,1012.98
2016-09-20T05:22:11.884Z,1012.99
2016-09-20T05:22:52.433Z,1012.98
2016-09-20T05:23:32.979Z,1012.99
2016-09-20T05:24:13.514Z,1012.97
2016-09-20T05:24:54.056Z,1012.99
2016-09-20T05:25:34.597Z,1012.99
2016-09-20T05:26:15.138Z,1012.96
2016-09-20T05:26:55.678Z,1013
2016-09-20T05:27:36.210Z,1013.04
2016-09-20T05:28:16.761Z,1013.02
2016-09-20T05:28:57.297Z,1012.99
2016-09-20T05:29:37.844Z,1013.03
2016-09-20T05:30:18.413Z,1013.05
2016-09-20T05:30:58.961Z,1013.01
2016-09-20T05:31:39.502Z,1013.01
2016-09-20T05:32:20.050Z,1013
2016-09-20T05:33:00.595Z,1013.03
2016-09-20T05:33:41.146Z,1013
2016-09-20T05:34:21.705Z,1012.99
2016-09-20T05:35:02.253Z,1013.04
2016-09-20T05:35:42.799Z,1013.01
2016-09-20T05:36:23.338Z,1012.99
2016-09-20T05:37:03.887Z,1013.03
2016-09-20T05:37:45.321Z,1013
2016-09-20T05:38:25.905Z,1013.01
2016-09-20T05:39:06.452Z,1013
2016-09-20T05:39:47.074Z,1013
2016-09-20T05:40:27.618Z,1013.02
2016-09-20T05:41:08.163Z,1013.03
2016-09-20T05:41:48.699Z,1013.05
2016-09-20T05:42:29.248Z,1013.03
2016-09-20T05:43:09.784Z,1013.03
2016-09-20T05:43:50.334Z,1013.05
2016-09-20T05:44:31.085Z,1013.08
2016-09-20T05:45:11.629Z,1013.05
2016-09-20T05:45:52.211Z,1013.09
2016-09-20T05:46:32.747Z,1013.1
2016-09-20T05:47:13.295Z,1013.13
2016-09-20T05:47:53.844Z,1013.14
2016-09-20T05:48:34.393Z,1013.12
2016-09-20T05:49:14.941Z,1013.13
2016-09-20T05:49:55.685Z,1013.13
2016-09-20T05:50:36.257Z,1013.13
2016-09-20T05:51:16.799Z,1013.13
2016-09-20T05:51:57.353Z,1013.12
2016-09-20T05:52:37.884Z,1013.12
2016-09-20T05:53:18.431Z,1013.08
2016-09-20T05:53:58.982Z,1013.09
2016-09-20T05:54:39.594Z,1013.11
2016-09-20T05:55:20.141Z,1013.14
2016-09-20T05:56:00.677Z,1013.11
2016-09-20T05:56:41.217Z,1013.1
2016-09-20T05:57:21.763Z,1013.11
2016-09-20T05:58:02.309Z,1013.08
2016-09-20T05:58:42.854Z,1013.09
2016-09-20T05:59:23.395Z,1013.13
2016-09-20T06:00:03.940Z,1013.14
2016-09-20T06:00:44.488Z,1013.11
2016-09-20T06:01:25.028Z,1013.13
2016-09-20T06:02:05.573Z,1013.13
2016-09-20T06:02:46.121Z,1013.13
2016-09-20T06:03:26.693Z,1013.11
2016-09-20T06:04:07.241Z,1013.16
2016-09-20T06:04:47.815Z,1013.14
2016-09-20T06:05:28.365Z,1013.12
2016-09-20T06:06:08.899Z,1013.14
2016-09-20T06:06:49.437Z,1013.14
2016-09-20T06:07:29.976Z,1013.14
2016-09-20T06:08:10.523Z,1013.12
2016-09-20T06:08:51.064Z,1013.14
2016-09-20T06:09:31.580Z,1013.17
2016-09-20T06:10:12.127Z,1013.12
2016-09-20T06:10:52.661Z,1013.15
2016-09-20T06:11:33.215Z,1013.13
2016-09-20T06:12:13.762Z,1013.15
2016-09-20T06:12:54.312Z,1013.18
2016-09-20T06:13:34.858Z,1013.19
2016-09-20T06:14:15.389Z,1013.16
2016-09-20T06:14:55.937Z,1013.16
2016-09-20T06:15:36.481Z,1013.21
2016-09-20T06:16:17.001Z,1013.2
2016-09-20T06:16:57.548Z,1013.18
2016-09-20T06:17:38.104Z,1013.2
2016-09-20T06:18:18.635Z,1013.18
2016-09-20T06:18:59.179Z,1013.2
2016-09-20T06:19:39.733Z,1013.19
2016-09-20T06:20:20.285Z,1013.21
2016-09-20T06:21:00.831Z,1013.22
2016-09-20T06:21:41.373Z,1013.19
2016-09-20T06:22:21.927Z,1013.17
2016-09-20T06:23:02.793Z,1013.16
2016-09-20T06:23:43.103Z,1013.17
2016-09-20T06:24:23.656Z,1013.19
2016-09-20T06:25:04.197Z,1013.19
2016-09-20T06:25:44.730Z,1013.2
2016-09-20T06:26:25.268Z,1013.15
2016-09-20T06:27:05.815Z,1013.14
2016-09-20T06:27:46.347Z,1013.14
2016-09-20T06:28:26.912Z,1013.17
2016-09-20T06:29:07.455Z,1013.14
2016-09-20T06:29:48.001Z,1013.11
2016-09-20T06:30:28.547Z,1013.15
2016-09-20T06:31:09.096Z,1013.16
2016-09-20T06:31:49.647Z,1013.15
2016-09-20T06:32:30.187Z,1013.18
2016-09-20T06:33:10.738Z,1013.14
2016-09-20T06:33:51.288Z,1013.16
2016-09-20T06:34:31.871Z,1013.18
2016-09-20T06:35:12.421Z,1013.16
2016-09-20T06:35:52.981Z,1013.16
2016-09-20T06:36:33.522Z,1013.17
2016-09-20T06:37:14.066Z,1013.18
2016-09-20T06:37:54.610Z,1013.17
2016-09-20T06:38:35.156Z,1013.17
2016-09-20T06:39:15.711Z,1013.15
2016-09-20T06:39:56.258Z,1013.21
2016-09-20T06:40:36.807Z,1013.18
2016-09-20T06:41:17.351Z,1013.19
2016-09-20T06:41:57.896Z,1013.22
2016-09-20T06:42:38.439Z,1013.25
2016-09-20T06:43:18.987Z,1013.19
2016-09-20T06:43:59.542Z,1013.21
2016-09-20T06:44:40.090Z,1013.19
2016-09-20T06:45:20.638Z,1013.2
2016-09-20T06:46:01.173Z,1013.19
2016-09-20T06:46:41.703Z,1013.2
2016-09-20T06:47:22.238Z,1013.19
2016-09-20T06:48:02.783Z,1013.2
2016-09-20T06:48:43.334Z,1013.19
2016-09-20T06:49:23.877Z,1013.21
2016-09-20T06:50:04.421Z,1013.23
2016-09-20T06:50:44.969Z,1013.19
2016-09-20T06:51:25.507Z,1013.22
2016-09-20T06:52:06.050Z,1013.23
2016-09-20T06:52:46.597Z,1013.24
2016-09-20T06:53:27.142Z,1013.23
2016-09-20T06:54:07.689Z,1013.23
2016-09-20T06:54:48.238Z,1013.21
2016-09-20T06:55:28.772Z,1013.2
2016-09-20T06:56:09.321Z,1013.21
2016-09-20T06:56:49.879Z,1013.23
2016-09-20T06:57:30.414Z,1013.21
2016-09-20T06:58:10.949Z,1013.23
2016-09-20T06:58:51.498Z,1013.22
2016-09-20T06:59:32.103Z,1013.24
2016-09-20T07:00:12.653Z,1013.25
2016-09-20T07:00:53.185Z,1013.25
2016-09-20T07:01:33.731Z,1013.23
2016-09-20T07:02:14.274Z,1013.26
2016-09-20T07:03:35.353Z,1013.25
2016-09-20T07:04:15.895Z,1013.25
2016-09-20T07:04:56.445Z,1013.26
2016-09-20T07:05:36.984Z,1013.27
2016-09-20T07:06:17.526Z,1013.24
2016-09-20T07:06:58.076Z,1013.22
2016-09-20T07:07:38.623Z,1013.22
2016-09-20T07:08:19.165Z,1013.2
2016-09-20T07:08:59.715Z,1013.26
2016-09-20T07:09:40.258Z,1013.26
2016-09-20T07:10:20.802Z,1013.25
2016-09-20T07:11:01.335Z,1013.25
2016-09-20T07:11:41.875Z,1013.28
2016-09-20T07:12:22.412Z,1013.23
2016-09-20T07:13:02.960Z,1013.22
2016-09-20T07:13:43.502Z,1013.24
2016-09-20T07:14:24.047Z,1013.22
2016-09-20T07:15:04.599Z,1013.24
2016-09-20T07:15:45.146Z,1013.25
2016-09-20T07:16:25.701Z,1013.25
2016-09-20T07:17:06.247Z,1013.27
2016-09-20T07:17:46.803Z,1013.27
2016-09-20T07:18:27.351Z,1013.29
2016-09-20T07:19:07.901Z,1013.27
2016-09-20T07:19:48.445Z,1013.3
2016-09-20T07:20:28.978Z,1013.29
2016-09-20T07:21:09.524Z,1013.28
2016-09-20T07:21:50.066Z,1013.31
2016-09-20T07:22:30.602Z,1013.29
2016-09-20T07:23:11.145Z,1013.29
2016-09-20T07:23:51.690Z,1013.28
2016-09-20T07:24:32.230Z,1013.3
2016-09-20T07:25:12.774Z,1013.32
2016-09-20T07:25:53.323Z,1013.29
2016-09-20T07:26:33.858Z,1013.29
2016-09-20T07:27:14.412Z,1013.28
2016-09-20T07:27:54.958Z,1013.3
2016-09-20T07:28:35.503Z,1013.29
2016-09-20T07:29:16.047Z,1013.31
2016-09-20T07:29:56.590Z,1013.34
2016-09-20T07:30:37.134Z,1013.29
2016-09-20T07:31:17.670Z,1013.33
2016-09-20T07:31:58.216Z,1013.34
2016-09-20T07:32:38.754Z,1013.33
2016-09-20T07:33:19.291Z,1013.31
2016-09-20T07:33:59.834Z,1013.39
2016-09-20T07:34:40.375Z,1013.33
2016-09-20T07:35:20.927Z,1013.34
2016-09-20T07:36:01.467Z,1013.35
2016-09-20T07:36:42.016Z,1013.37
2016-09-20T07:37:22.567Z,1013.35
2016-09-20T07:38:03.115Z,1013.37
2016-09-20T07:38:43.657Z,1013.41
2016-09-20T07:39:24.195Z,1013.35
2016-09-20T07:40:04.739Z,1013.38
2016-09-20T07:40:45.279Z,1013.39
2016-09-20T07:41:25.823Z,1013.39
2016-09-20T07:42:06.370Z,1013.38
2016-09-20T07:42:46.911Z,1013.38
2016-09-20T07:43:27.462Z,1013.39
2016-09-20T07:44:08.015Z,1013.38
2016-09-20T07:44:48.563Z,1013.37
2016-09-20T07:45:29.110Z,1013.4
2016-09-20T07:46:09.669Z,1013.38
2016-09-20T07:48:44.227Z,1013.37
2016-09-20T07:49:24.806Z,1013.37
2016-09-20T07:50:05.352Z,1013.38
2016-09-20T07:50:45.907Z,1013.36
2016-09-20T07:51:26.443Z,1013.33
2016-09-20T07:52:06.992Z,1013.36
2016-09-20T07:52:47.537Z,1013.36
2016-09-20T07:53:28.083Z,1013.38
2016-09-20T07:54:08.621Z,1013.38
2016-09-20T07:54:49.186Z,1013.37
2016-09-20T07:55:29.732Z,1013.41
2016-09-20T07:56:10.282Z,1013.37
2016-09-20T07:56:50.825Z,1013.38
2016-09-20T07:57:31.366Z,1013.38
2016-09-20T07:58:11.907Z,1013.38
2016-09-20T07:58:52.450Z,1013.38
2016-09-20T07:59:32.983Z,1013.41
2016-09-20T08:00:13.535Z,1013.38
2016-09-20T08:00:54.082Z,1013.39
2016-09-20T08:01:34.617Z,1013.4
2016-09-20T08:02:15.164Z,1013.41
2016-09-20T08:02:55.713Z,1013.44
2016-09-20T08:03:36.257Z,1013.42
2016-09-20T08:04:16.805Z,1013.43
2016-09-20T08:04:57.345Z,1013.45
2016-09-20T08:05:37.892Z,1013.45
2016-09-20T08:06:18.449Z,1013.44
2016-09-20T08:06:58.995Z,1013.42
2016-09-20T08:07:39.541Z,1013.46
2016-09-20T08:08:20.062Z,1013.49
2016-09-20T08:09:00.610Z,1013.47
2016-09-20T08:09:41.148Z,1013.49
2016-09-20T08:10:21.695Z,1013.44
2016-09-20T08:11:02.232Z,1013.43
2016-09-20T08:11:42.783Z,1013.44
2016-09-20T08:12:23.333Z,1013.46
2016-09-20T08:13:03.876Z,1013.45
2016-09-20T08:13:44.442Z,1013.47
2016-09-20T08:14:24.969Z,1013.45
2016-09-20T08:15:05.493Z,1013.45
2016-09-20T08:15:46.044Z,1013.46